Time;durP1;ratioP1;P1;durP2;ratioP2;P2;SDS_P1;SDS_P2;PMS_P1;PMS_P2;Temp;Humidity;BMP_temperature;BMP_pressure;BME280_temperature;BME280_humidity;BME280_pressure;Samples;Min_cycle;Max_cycle;Signal;HPM_P1;HPM_P2
2021/11/08 00:02:05;;;;;;;9.05;5.30;;;;;;;7.89;64.44;98790.13;5052336;28;20029;-63
2021/11/08 00:04:33;;;;;;;9.88;5.63;;;;;;;7.82;64.46;98783.59;5052349;28;20082;-62
2021/11/08 00:06:59;;;;;;;10.75;5.50;;;;;;;7.77;64.24;98781.38;5051982;28;20108;-60
2021/11/08 00:09:25;;;;;;;7.22;5.32;;;;;;;7.70;64.41;98766.84;5052092;28;20082;-62
2021/11/08 00:11:51;;;;;;;9.30;5.43;;;;;;;7.73;64.60;98771.94;5051806;28;20476;-62
2021/11/08 00:14:19;;;;;;;7.47;5.35;;;;;;;7.69;64.72;98763.38;5051610;28;20036;-61
2021/11/08 00:22:15;;;;;;;9.95;5.68;;;;;;;7.74;64.24;98757.66;5009487;28;20048;-61
2021/11/08 00:24:45;;;;;;;9.50;5.57;;;;;;;7.56;63.84;98728.09;5009647;28;20038;-63
2021/11/08 00:27:11;;;;;;;8.70;5.70;;;;;;;7.76;63.93;98758.34;5014340;28;20129;-60
2021/11/08 00:29:37;;;;;;;8.40;4.97;;;;;;;7.76;63.72;98753.03;5051533;28;20086;-61
2021/11/08 00:32:04;;;;;;;8.85;5.35;;;;;;;7.70;63.60;98748.22;5051301;28;20063;-64
2021/11/08 00:34:30;;;;;;;8.88;5.25;;;;;;;7.67;64.07;98743.16;5051625;28;20432;-60
2021/11/08 00:36:56;;;;;;;7.75;5.13;;;;;;;7.74;63.84;98749.66;5051664;28;20032;-61
2021/11/08 00:39:22;;;;;;;11.15;6.00;;;;;;;7.78;63.48;98751.06;5051770;28;20074;-60
2021/11/08 00:41:48;;;;;;;9.55;5.43;;;;;;;7.73;63.38;98739.97;5060337;28;20028;-60
2021/11/08 00:44:14;;;;;;;7.68;5.00;;;;;;;7.73;63.42;98738.13;5052962;28;20020;-59
2021/11/08 00:46:39;;;;;;;9.82;5.68;;;;;;;7.70;63.22;98732.22;5071328;28;20039;-61
2021/11/08 00:49:06;;;;;;;10.25;5.53;;;;;;;7.66;63.25;98731.66;5053565;28;20063;-62
2021/11/08 00:51:36;;;;;;;7.68;5.70;;;;;;;7.74;63.09;98737.16;5069920;28;20086;-59
2021/11/08 00:54:01;;;;;;;7.78;5.80;;;;;;;7.70;63.32;98726.91;5069882;28;20025;-61
2021/11/08 00:56:27;;;;;;;9.30;5.45;;;;;;;7.73;62.60;98735.47;5053506;28;20028;-60
2021/11/08 00:58:53;;;;;;;9.18;6.03;;;;;;;7.53;63.00;98691.06;5071409;28;20481;-60
2021/11/08 01:01:22;;;;;;;8.77;5.15;;;;;;;7.72;62.97;98720.47;5052518;28;20040;-61
2021/11/08 01:03:49;;;;;;;11.18;5.65;;;;;;;7.74;63.09;98733.66;5070836;28;20044;-61
2021/11/08 01:06:19;;;;;;;8.52;5.30;;;;;;;7.78;62.93;98724.44;5053644;28;20025;-60
2021/11/08 01:08:46;;;;;;;8.65;5.70;;;;;;;7.69;62.73;98730.53;5071146;28;20047;-60
2021/11/08 01:11:13;;;;;;;7.22;5.00;;;;;;;7.67;63.05;98719.16;5070382;28;20036;-60
2021/11/08 01:13:39;;;;;;;8.07;5.78;;;;;;;7.70;62.50;98716.25;5070053;28;20028;-60
2021/11/08 01:16:05;;;;;;;8.57;5.60;;;;;;;7.63;63.23;98715.09;5071238;28;20469;-61
2021/11/08 01:18:32;;;;;;;8.55;5.20;;;;;;;7.64;62.96;98708.78;5071200;28;20059;-60
2021/11/08 01:20:57;;;;;;;8.13;5.18;;;;;;;7.63;62.79;98702.63;5070498;28;20063;-60
2021/11/08 01:23:27;;;;;;;7.43;5.15;;;;;;;7.69;62.72;98703.91;5070374;28;20036;-60
2021/11/08 01:26:03;;;;;;;10.90;5.93;;;;;;;7.49;62.86;98655.88;5052674;28;20039;-60
2021/11/08 01:28:44;;;;;;;7.38;5.80;;;;;;;7.66;62.56;98688.19;5052495;28;20488;-61
2021/11/08 01:31:11;;;;;;;8.75;5.47;;;;;;;7.61;62.50;98678.78;5070611;28;20194;-61
2021/11/08 01:33:39;;;;;;;9.32;5.88;;;;;;;7.59;62.57;98688.72;5070489;28;20452;-64
2021/11/08 01:38:39;;;;;;;10.40;5.82;;;;;;;7.51;62.54;98658.41;5070199;28;20036;-61
2021/11/08 01:41:04;;;;;;;8.60;5.43;;;;;;;7.53;62.86;98673.28;5070891;28;20025;-62
2021/11/08 01:43:33;;;;;;;9.90;4.93;;;;;;;7.45;62.90;98654.44;5052628;28;20025;-60
2021/11/08 01:45:59;;;;;;;9.15;6.00;;;;;;;7.43;62.85;98659.91;5069932;28;20495;-59
2021/11/08 01:48:25;;;;;;;10.10;5.70;;;;;;;7.49;62.97;98663.88;5070460;28;20071;-60
2021/11/08 01:50:51;;;;;;;8.90;5.70;;;;;;;7.46;62.74;98658.78;5070560;28;20437;-61
2021/11/08 01:53:19;;;;;;;10.43;5.88;;;;;;;7.45;62.94;98657.09;5070252;28;20024;-60
2021/11/08 01:55:44;;;;;;;8.05;5.45;;;;;;;7.53;62.30;98664.44;5070642;28;20039;-61
2021/11/08 01:58:10;;;;;;;8.98;5.65;;;;;;;7.57;62.39;98665.84;5069462;28;20025;-60
2021/11/08 02:00:37;;;;;;;8.18;5.60;;;;;;;7.56;62.28;98646.38;5070587;28;20380;-60
2021/11/08 02:03:03;;;;;;;10.13;5.85;;;;;;;7.37;62.34;98615.19;5070205;28;20085;-62
2021/11/08 02:05:28;;;;;;;9.23;5.78;;;;;;;7.56;62.41;98656.16;5071009;28;20410;-59
2021/11/08 02:07:54;;;;;;;8.68;5.72;;;;;;;7.53;62.54;98630.66;5035737;28;20032;-61
2021/11/08 02:10:23;;;;;;;9.40;5.65;;;;;;;7.37;62.47;98599.22;5069939;28;20040;-60
2021/11/08 02:12:49;;;;;;;12.35;5.93;;;;;;;7.55;62.41;98639.34;5070572;28;20037;-61
2021/11/08 02:15:17;;;;;;;9.82;5.93;;;;;;;7.57;62.42;98652.53;5052580;28;20024;-60
2021/11/08 02:17:46;;;;;;;7.93;5.43;;;;;;;7.56;62.20;98634.84;5052083;28;20051;-61
2021/11/08 02:20:14;;;;;;;10.63;6.28;;;;;;;7.47;62.75;98647.16;5069880;28;20541;-61
2021/11/08 02:22:41;;;;;;;9.48;6.22;;;;;;;7.39;62.96;98626.53;5069531;28;20392;-63
2021/11/08 02:25:08;;;;;;;11.82;6.45;;;;;;;7.50;62.69;98638.94;5073072;28;20031;-60
2021/11/08 02:27:36;;;;;;;9.25;6.20;;;;;;;7.52;62.75;98633.44;5073645;28;20085;-60
2021/11/08 02:30:03;;;;;;;10.25;5.72;;;;;;;7.54;62.52;98627.03;5073898;28;20033;-61
2021/11/08 02:32:29;;;;;;;10.02;6.90;;;;;;;7.33;62.42;98595.09;5074086;28;20033;-61
2021/11/08 02:34:55;;;;;;;11.20;6.07;;;;;;;7.48;62.76;98611.59;5073687;28;20032;-60
2021/11/08 02:37:20;;;;;;;11.57;6.47;;;;;;;7.53;62.50;98612.03;5073378;28;20423;-60
2021/11/08 02:39:49;;;;;;;9.68;6.20;;;;;;;7.34;62.50;98572.81;5073332;28;20040;-63
2021/11/08 02:42:14;;;;;;;11.45;6.63;;;;;;;7.57;62.36;98610.75;5074136;28;20090;-60
2021/11/08 02:44:40;;;;;;;12.13;6.28;;;;;;;7.55;62.67;98614.53;5039474;28;20423;-62
2021/11/08 02:47:05;;;;;;;12.48;6.45;;;;;;;7.56;62.51;98609.09;5073341;28;20478;-62
2021/11/08 02:49:34;;;;;;;12.43;6.78;;;;;;;7.51;62.58;98594.47;5055446;28;20032;-62
2021/11/08 02:52:02;;;;;;;10.90;6.40;;;;;;;7.54;62.44;98600.38;5073776;28;20024;-60
2021/11/08 02:54:32;;;;;;;11.75;6.28;;;;;;;7.54;62.61;98610.19;5055700;28;20033;-60
2021/11/08 02:56:59;;;;;;;11.25;6.55;;;;;;;7.52;62.36;98610.34;5073468;28;20033;-60
2021/11/08 02:59:27;;;;;;;9.73;6.13;;;;;;;7.52;62.43;98586.38;5055514;28;20133;-60
2021/11/08 03:01:54;;;;;;;9.25;6.22;;;;;;;7.52;62.83;98583.69;5073628;28;20029;-62
2021/11/08 03:04:25;;;;;;;11.82;7.05;;;;;;;7.52;62.50;98574.84;5073646;28;20025;-62
2021/11/08 03:06:50;;;;;;;10.77;6.97;;;;;;;7.30;62.10;98545.63;5072892;28;20401;-62
2021/11/08 03:09:20;;;;;;;10.13;7.05;;;;;;;7.54;62.35;98595.06;5072713;28;20029;-61
2021/11/08 03:11:47;;;;;;;11.32;6.85;;;;;;;7.53;61.93;98596.03;5055586;28;20041;-59
2021/11/08 03:14:17;;;;;;;10.68;7.30;;;;;;;7.47;62.63;98588.56;5072626;28;20500;-62
2021/11/08 03:16:48;;;;;;;13.25;6.82;;;;;;;7.49;62.70;98594.63;5055486;28;20533;-63
2021/11/08 03:19:20;;;;;;;9.73;6.18;;;;;;;7.50;62.70;98579.47;5072458;28;20045;-61
2021/11/08 03:21:50;;;;;;;12.73;7.07;;;;;;;7.50;62.84;98580.34;5054544;28;20048;-60
2021/11/08 03:25:01;;;;;;;10.00;6.63;;;;;;;7.55;62.63;98580.75;5072615;28;20024;-59
2021/11/08 03:30:05;;;;;;;10.55;6.65;;;;;;;7.68;61.70;98571.66;5070886;28;20090;-60
2021/11/08 03:32:31;;;;;;;9.95;6.72;;;;;;;7.63;62.11;98565.91;5054508;28;20078;-60
2021/11/08 03:34:59;;;;;;;12.85;6.55;;;;;;;7.60;62.32;98575.88;5072119;28;20032;-60
2021/11/08 03:37:27;;;;;;;10.40;6.78;;;;;;;7.64;61.90;98560.47;5072567;28;20086;-60
2021/11/08 03:39:52;;;;;;;11.30;7.47;;;;;;;7.63;62.21;98563.25;5072439;28;20028;-62
2021/11/08 03:42:19;;;;;;;10.82;6.85;;;;;;;7.60;62.36;98551.91;5072071;28;20035;-62
2021/11/08 03:44:45;;;;;;;11.07;7.07;;;;;;;7.55;62.30;98543.47;5072416;28;20453;-63
2021/11/08 03:47:11;;;;;;;9.90;6.53;;;;;;;7.66;62.11;98547.00;5072330;28;20055;-61
2021/11/08 03:49:37;;;;;;;10.55;6.75;;;;;;;7.63;62.27;98544.59;5037734;28;20024;-61
2021/11/08 03:52:03;;;;;;;11.73;7.35;;;;;;;7.68;62.10;98553.03;5054286;28;20028;-61
2021/11/08 03:54:29;;;;;;;10.05;6.57;;;;;;;7.57;62.39;98528.19;5072060;28;20037;-61
2021/11/08 03:56:55;;;;;;;12.57;6.63;;;;;;;7.58;62.60;98542.34;5071717;28;20085;-61
2021/11/08 03:59:22;;;;;;;11.85;7.32;;;;;;;7.63;62.66;98541.94;5069098;28;20116;-60
2021/11/08 04:01:48;;;;;;;9.35;6.68;;;;;;;7.63;62.33;98532.16;5070209;28;20036;-60
2021/11/08 04:04:14;;;;;;;11.38;7.18;;;;;;;7.63;62.41;98533.94;5070070;28;20024;-61
2021/11/08 04:06:41;;;;;;;12.23;7.45;;;;;;;7.66;62.25;98537.19;5069522;28;20085;-62
2021/11/08 04:09:12;;;;;;;9.52;6.78;;;;;;;7.70;62.13;98530.59;5070173;28;20111;-62
2021/11/08 04:11:42;;;;;;;10.27;7.30;;;;;;;7.69;62.24;98528.91;5051947;28;20123;-62
2021/11/08 04:14:10;;;;;;;10.35;6.03;;;;;;;7.67;62.17;98524.69;5069364;28;20653;-59
2021/11/08 04:16:39;;;;;;;11.38;7.38;;;;;;;7.68;62.38;98524.56;5069665;28;20036;-61
2021/11/08 04:19:05;;;;;;;11.10;7.68;;;;;;;7.67;62.02;98522.03;5070422;28;20133;-61
2021/11/08 04:21:33;;;;;;;11.60;7.45;;;;;;;7.65;62.28;98516.88;5071299;28;20037;-60
2021/11/08 04:23:59;;;;;;;13.07;7.35;;;;;;;7.50;62.67;98505.75;5053282;28;20518;-63
2021/11/08 04:26:29;;;;;;;10.73;7.43;;;;;;;7.54;62.31;98507.16;5071548;28;20759;-62
2021/11/08 04:29:00;;;;;;;10.15;6.82;;;;;;;7.59;62.61;98518.25;5071685;28;20370;-60
2021/11/08 04:31:27;;;;;;;12.27;8.05;;;;;;;7.60;62.44;98509.28;5071072;28;20060;-60
2021/11/08 04:34:03;;;;;;;10.75;7.15;;;;;;;7.59;62.44;98506.72;5053038;28;20028;-61
2021/11/08 04:46:46;;;;;;;12.70;7.65;;;;;;;7.64;62.35;98493.00;5070374;28;20028;-60
2021/11/08 04:51:47;;;;;;;14.05;8.02;;;;;;;7.66;62.18;98501.69;5070872;28;20440;-60
2021/11/08 05:25:26;;;;;;;11.85;7.82;;;;;;;7.63;63.32;98481.53;5070857;28;20033;-60
2021/11/08 05:30:01;;;;;;;14.27;7.88;;;;;;;7.63;63.35;98475.34;5052205;28;20090;-61
2021/11/08 05:32:31;;;;;;;15.50;8.57;;;;;;;7.57;63.47;98466.94;5070797;28;20056;-61
2021/11/08 05:34:58;;;;;;;12.88;7.82;;;;;;;7.56;63.86;98459.06;5052489;28;20131;-61
2021/11/08 05:37:23;;;;;;;12.50;7.93;;;;;;;7.47;64.17;98460.72;5070357;28;20028;-62
2021/11/08 05:39:53;;;;;;;13.10;8.27;;;;;;;7.48;64.49;98467.78;5071072;28;20055;-62
2021/11/08 05:42:20;;;;;;;13.18;7.68;;;;;;;7.53;64.60;98454.88;5070408;28;20029;-62
2021/11/08 05:44:46;;;;;;;13.57;8.75;;;;;;;7.53;64.07;98457.53;5052287;28;20075;-61
2021/11/08 05:47:12;;;;;;;13.23;7.90;;;;;;;7.55;64.70;98454.72;5070686;28;20083;-60
2021/11/08 05:49:38;;;;;;;14.05;8.43;;;;;;;7.56;64.43;98464.41;5070393;28;20472;-62
2021/11/08 05:52:04;;;;;;;14.65;8.88;;;;;;;7.46;65.01;98459.91;5051974;28;20468;-62
2021/11/08 05:54:31;;;;;;;14.30;8.57;;;;;;;7.33;64.96;98422.03;5064445;28;20032;-60
2021/11/08 06:49:16;;;;;;;13.52;8.30;;;;;;;7.36;66.59;98431.59;5063054;28;20047;-61
2021/11/08 06:51:41;;;;;;;12.60;7.85;;;;;;;7.35;67.23;98437.88;5064409;28;20032;-55
2021/11/08 06:54:09;;;;;;;15.60;8.07;;;;;;;7.36;67.01;98442.22;5059092;28;20469;-59
2021/11/08 06:56:43;;;;;;;11.65;7.97;;;;;;;7.36;67.35;98436.91;5035440;28;20056;-61
2021/11/08 06:59:10;;;;;;;14.77;7.97;;;;;;;7.39;67.05;98436.63;5053368;28;20465;-61
2021/11/08 07:01:36;;;;;;;12.82;7.28;;;;;;;7.39;67.40;98429.50;5052071;28;20037;-61
2021/11/08 07:04:01;;;;;;;12.30;7.43;;;;;;;7.37;67.29;98417.28;5052925;28;20053;-61
2021/11/08 07:06:27;;;;;;;14.00;7.22;;;;;;;7.42;67.41;98420.38;5052490;28;20040;-59
2021/11/08 07:08:52;;;;;;;12.38;7.60;;;;;;;7.44;67.18;98416.59;5044435;28;20036;-64
2021/11/08 07:11:18;;;;;;;11.85;6.88;;;;;;;7.54;66.95;98418.41;5069607;28;20032;-63
2021/11/08 07:13:45;;;;;;;9.02;6.47;;;;;;;7.61;66.49;98424.91;5070671;28;20771;-62
2021/11/08 07:16:11;;;;;;;9.02;6.20;;;;;;;7.58;66.75;98423.34;5069889;28;20036;-63
2021/11/08 07:18:37;;;;;;;10.25;6.47;;;;;;;7.59;66.90;98429.50;5068501;28;20044;-62
2021/11/08 07:21:02;;;;;;;11.45;5.90;;;;;;;7.60;66.16;98429.38;5034739;28;20392;-62
2021/11/08 07:23:42;;;;;;;;;;;;;;;7.89;65.49;98428.50;5079975;28;20383;-62
2021/11/08 07:26:11;;;;;;;9.10;5.32;;;;;;;7.55;65.63;98391.66;5065601;28;19917;-60
2021/11/08 07:28:37;;;;;;;6.32;5.20;;;;;;;7.64;66.10;98427.28;5068467;28;20071;-62
2021/11/08 07:31:03;;;;;;;8.18;4.68;;;;;;;7.46;65.72;98388.00;5068193;28;20028;-59
2021/11/08 07:33:30;;;;;;;8.07;5.00;;;;;;;7.60;65.89;98421.38;5068072;28;20455;-65
2021/11/08 07:35:57;;;;;;;6.78;5.22;;;;;;;7.43;66.61;98412.25;5068427;28;20131;-61
2021/11/08 07:38:23;;;;;;;9.93;5.63;;;;;;;7.52;66.98;98413.25;5068011;28;20082;-61
2021/11/08 07:40:48;;;;;;;7.18;5.03;;;;;;;7.58;66.88;98410.03;5067819;28;20032;-62
2021/11/08 07:43:14;;;;;;;6.25;4.80;;;;;;;7.41;66.20;98386.72;5068055;28;20071;-61
2021/11/08 07:45:39;;;;;;;6.75;4.45;;;;;;;7.54;66.88;98416.63;5068007;28;20372;-63
2021/11/08 07:48:06;;;;;;;8.52;5.25;;;;;;;7.56;67.11;98422.63;5066330;28;20112;-61
2021/11/08 07:50:32;;;;;;;8.00;5.15;;;;;;;7.59;67.21;98414.38;5067677;28;20443;-62
2021/11/08 07:52:57;;;;;;;8.55;4.95;;;;;;;7.64;66.82;98411.28;5067502;28;20037;-62
2021/11/08 07:55:23;;;;;;;8.63;5.00;;;;;;;7.53;66.38;98390.97;5067814;28;20024;-64
2021/11/08 07:57:48;;;;;;;7.70;4.75;;;;;;;7.64;66.50;98403.31;5067668;28;20028;-62
2021/11/08 08:00:14;;;;;;;9.05;5.00;;;;;;;7.71;66.76;98423.06;5068363;28;20064;-61
2021/11/08 08:02:41;;;;;;;7.38;4.85;;;;;;;7.73;66.05;98409.59;5067308;28;20036;-63
2021/11/08 08:05:07;;;;;;;9.05;4.85;;;;;;;7.71;66.25;98412.41;5065328;28;20112;-64
2021/11/08 08:07:32;;;;;;;8.05;4.97;;;;;;;7.73;66.19;98407.78;5067670;28;20540;-61
2021/11/08 08:09:58;;;;;;;8.35;5.15;;;;;;;7.72;66.03;98394.59;5067937;28;20040;-64
2021/11/08 08:12:23;;;;;;;8.32;5.32;;;;;;;7.74;66.27;98404.13;5067849;28;20036;-62
2021/11/08 08:14:49;;;;;;;8.27;5.32;;;;;;;7.75;65.87;98402.31;5067205;28;20064;-61
2021/11/08 08:17:15;;;;;;;7.63;4.93;;;;;;;7.72;65.79;98390.09;5067652;28;20427;-61
2021/11/08 08:19:40;;;;;;;8.55;5.60;;;;;;;7.79;65.93;98400.19;5067694;28;20082;-62
2021/11/08 08:22:06;;;;;;;6.03;4.75;;;;;;;7.82;65.86;98390.09;5067032;28;20087;-63
2021/11/08 08:24:32;;;;;;;7.53;4.95;;;;;;;7.86;65.49;98383.50;5066885;28;20037;-61
2021/11/08 08:26:59;;;;;;;9.70;5.35;;;;;;;7.89;65.57;98385.06;5067916;28;20025;-61
2021/11/08 08:29:25;;;;;;;8.13;5.43;;;;;;;7.91;66.04;98393.75;5067605;28;20029;-61
2021/11/08 08:31:50;;;;;;;6.80;5.10;;;;;;;7.94;65.75;98387.25;5067403;28;20037;-62
2021/11/08 08:34:17;;;;;;;8.20;5.50;;;;;;;7.88;65.40;98367.38;5057762;28;20055;-61
2021/11/08 08:36:44;;;;;;;7.38;4.90;;;;;;;7.97;65.78;98385.16;5053727;28;20033;-62
2021/11/08 08:39:10;;;;;;;13.32;5.45;;;;;;;7.99;65.93;98390.38;5053057;28;20035;-59
2021/11/08 08:41:37;;;;;;;7.00;4.70;;;;;;;7.97;65.42;98371.84;5053497;28;20377;-61
2021/11/08 08:44:03;;;;;;;8.32;5.00;;;;;;;8.04;65.64;98382.78;5051660;28;20025;-61
2021/11/08 08:46:29;;;;;;;7.82;5.40;;;;;;;8.03;65.08;98381.09;5048089;28;20337;-62
2021/11/08 08:48:56;;;;;;;8.50;5.90;;;;;;;7.91;64.84;98356.44;5053927;28;20110;-63
2021/11/08 08:51:21;;;;;;;6.80;5.50;;;;;;;7.95;65.06;98368.47;5053373;28;20032;-65
2021/11/08 08:53:48;;;;;;;10.73;5.95;;;;;;;7.85;65.76;98367.66;5052983;28;20067;-64
2021/11/08 08:56:15;;;;;;;10.80;5.72;;;;;;;7.92;66.02;98362.59;5053011;28;20044;-63
2021/11/08 08:58:41;;;;;;;8.15;5.75;;;;;;;7.94;65.65;98365.94;5053558;28;20033;-64
2021/11/08 09:01:06;;;;;;;9.80;6.25;;;;;;;7.99;65.45;98364.53;5046682;28;20032;-64
2021/11/08 09:03:32;;;;;;;9.60;6.15;;;;;;;8.07;65.50;98366.50;5051872;28;20056;-60
2021/11/08 09:05:57;;;;;;;10.85;6.53;;;;;;;8.14;65.40;98356.94;5052918;28;20028;-59
2021/11/08 09:08:23;;;;;;;8.95;6.45;;;;;;;8.17;65.06;98366.47;5052155;28;20025;-60
2021/11/08 09:10:49;;;;;;;10.05;6.72;;;;;;;8.21;65.12;98362.53;5049775;28;20033;-63
2021/11/08 09:13:16;;;;;;;8.23;5.85;;;;;;;8.18;65.10;98357.50;5048779;28;20052;-63
2021/11/08 09:15:42;;;;;;;8.05;5.75;;;;;;;8.10;64.56;98342.22;5052124;28;20086;-59
2021/11/08 09:18:09;;;;;;;11.18;6.03;;;;;;;8.17;64.76;98353.97;5052510;28;20033;-61
2021/11/08 09:20:37;;;;;;;8.85;6.10;;;;;;;8.27;64.39;98361.13;5048744;28;20040;-60
2021/11/08 09:23:06;;;;;;;10.90;6.90;;;;;;;8.24;64.47;98348.91;5051960;28;20080;-60
2021/11/08 09:25:32;;;;;;;9.90;6.15;;;;;;;8.21;64.41;98351.03;5052131;28;20056;-62
2021/11/08 09:28:00;;;;;;;10.68;6.53;;;;;;;8.16;64.89;98360.28;5052134;28;20098;-63
2021/11/08 09:30:29;;;;;;;10.05;6.53;;;;;;;8.12;64.85;98352.75;5052701;28;20112;-60
2021/11/08 09:32:55;;;;;;;10.20;6.78;;;;;;;8.03;65.20;98359.78;5052276;28;20021;-59
2021/11/08 09:35:22;;;;;;;9.73;6.72;;;;;;;7.98;65.06;98348.72;5051823;28;20199;-62
2021/11/08 09:37:48;;;;;;;9.23;5.85;;;;;;;7.96;65.49;98358.69;5052564;28;20037;-61
2021/11/08 09:40:21;;;;;;;9.77;6.63;;;;;;;7.96;65.89;98348.03;5015238;28;20573;-64
2021/11/08 09:42:50;;;;;;;8.27;6.45;;;;;;;7.90;66.09;98344.91;5031425;28;20040;-64
2021/11/08 09:45:16;;;;;;;10.68;6.78;;;;;;;7.84;66.12;98342.84;5030862;28;20550;-64
2021/11/08 09:47:45;;;;;;;10.07;6.65;;;;;;;7.84;66.02;98345.50;5031096;28;20489;-64
2021/11/08 09:50:13;;;;;;;9.38;6.25;;;;;;;7.78;65.81;98340.75;5032122;28;20080;-65
2021/11/08 09:52:44;;;;;;;12.43;7.72;;;;;;;7.92;66.10;98350.13;5036158;28;20029;-64
2021/11/08 09:55:14;;;;;;;10.85;6.63;;;;;;;7.81;65.84;98313.81;5032510;28;20036;-66
2021/11/08 09:57:40;;;;;;;9.85;7.15;;;;;;;8.11;65.37;98346.56;5032381;28;20034;-64
2021/11/08 10:00:17;;;;;;;10.30;6.15;;;;;;;8.28;65.23;98328.13;5031590;28;20087;-65
2021/11/08 10:02:50;;;;;;;11.90;7.03;;;;;;;8.36;64.92;98332.75;5031886;28;20492;-64
2021/11/08 10:05:16;;;;;;;8.68;5.93;;;;;;;8.30;64.26;98302.16;5045984;28;20148;-62
2021/11/08 10:07:41;;;;;;;11.93;6.80;;;;;;;8.26;63.88;98284.78;5050295;28;20111;-62
2021/11/08 10:10:07;;;;;;;11.40;6.70;;;;;;;8.43;63.91;98310.63;5050536;28;20060;-62
2021/11/08 10:12:33;;;;;;;9.38;6.53;;;;;;;8.40;64.15;98307.44;5052564;28;20445;-63
2021/11/08 10:15:00;;;;;;;9.07;6.22;;;;;;;8.46;63.60;98307.72;5052206;28;20033;-61
2021/11/08 10:17:28;;;;;;;10.18;7.15;;;;;;;8.32;64.00;98294.84;5051715;28;20040;-63
2021/11/08 10:19:54;;;;;;;9.93;7.25;;;;;;;8.34;64.15;98308.88;5050927;28;20623;-61
2021/11/08 10:22:21;;;;;;;9.73;6.30;;;;;;;8.39;64.50;98308.44;5050595;28;20110;-61
2021/11/08 10:24:48;;;;;;;10.18;6.45;;;;;;;8.12;63.93;98257.59;5050926;28;20037;-65
2021/11/08 10:27:17;;;;;;;12.13;6.32;;;;;;;8.42;64.51;98303.63;5051240;28;20037;-62
2021/11/08 10:29:45;;;;;;;8.88;6.40;;;;;;;8.36;64.26;98314.06;5050936;28;20061;-62
2021/11/08 10:32:13;;;;;;;12.23;7.28;;;;;;;8.32;64.09;98294.84;5051414;28;20021;-62
2021/11/08 10:34:52;;;;;;;11.25;7.00;;;;;;;8.33;64.70;98301.84;5024602;28;20091;-64
2021/11/08 10:37:26;;;;;;;8.25;6.43;;;;;;;8.35;64.57;98293.72;5042088;28;20103;-63
2021/11/08 10:39:53;;;;;;;10.52;7.45;;;;;;;8.29;64.63;98284.47;5044406;28;20506;-62
2021/11/08 10:42:22;;;;;;;10.05;7.25;;;;;;;8.35;64.83;98283.88;5033112;28;20051;-61
2021/11/08 10:44:47;;;;;;;11.80;7.53;;;;;;;8.35;64.76;98288.38;5041486;28;20029;-64
2021/11/08 10:47:13;;;;;;;9.73;6.65;;;;;;;8.32;64.27;98284.19;5039714;28;20037;-60
2021/11/08 10:49:42;;;;;;;10.30;7.63;;;;;;;8.37;64.33;98289.91;5040059;28;20070;-63
2021/11/08 10:52:14;;;;;;;11.07;6.80;;;;;;;8.34;64.64;98282.19;5050415;28;20054;-64
2021/11/08 10:54:43;;;;;;;10.40;6.50;;;;;;;8.20;64.91;98246.22;5046745;28;20033;-61
2021/11/08 10:57:13;;;;;;;13.43;7.05;;;;;;;8.44;64.19;98275.00;5049174;28;20036;-56
2021/11/08 10:59:44;;;;;;;9.57;6.72;;;;;;;8.47;64.56;98282.72;5022939;28;20114;-62
2021/11/08 11:02:13;;;;;;;12.35;6.82;;;;;;;8.50;64.45;98280.75;5040006;28;20026;-62
2021/11/08 11:04:47;;;;;;;10.25;7.05;;;;;;;8.47;64.60;98265.84;5048996;28;20492;-63
2021/11/08 11:07:27;;;;;;;9.70;7.32;;;;;;;8.61;64.78;98280.53;5047633;28;20043;-63
2021/11/08 11:10:00;;;;;;;12.75;7.07;;;;;;;8.58;64.60;98276.38;5049833;28;20473;-62
2021/11/08 11:12:29;;;;;;;10.27;7.00;;;;;;;8.55;65.16;98281.16;5050944;28;20806;-63
2021/11/08 11:15:01;;;;;;;11.60;6.75;;;;;;;8.60;64.41;98266.38;5050787;28;20029;-62
2021/11/08 11:17:32;;;;;;;9.30;7.10;;;;;;;8.64;63.96;98269.56;5030301;28;20444;-62
2021/11/08 11:20:17;;;;;;;10.43;6.70;;;;;;;8.74;64.39;98275.69;5038739;28;20489;-63
2021/11/08 11:22:54;;;;;;;12.25;6.78;;;;;;;8.68;64.48;98262.97;5039359;28;20057;-64
2021/11/08 11:25:22;;;;;;;10.88;7.03;;;;;;;8.67;64.43;98253.25;5049583;28;20469;-63
2021/11/08 11:27:49;;;;;;;12.10;7.55;;;;;;;8.78;64.21;98256.72;5050631;28;20033;-68
2021/11/08 11:30:18;;;;;;;10.63;6.63;;;;;;;8.86;63.66;98265.66;5050099;28;20111;-64
2021/11/08 11:32:54;;;;;;;9.75;6.80;;;;;;;8.86;63.67;98256.78;5048411;28;20033;-66
2021/11/08 11:35:20;;;;;;;10.15;6.75;;;;;;;8.73;63.25;98227.81;5031006;28;20485;-64
2021/11/08 11:38:02;;;;;;;18.67;7.53;;;;;;;8.86;63.63;98251.44;5029252;28;20026;-63
2021/11/08 11:40:34;;;;;;;9.80;7.20;;;;;;;8.65;63.79;98235.75;5030829;28;20030;-66
2021/11/08 11:43:04;;;;;;;11.63;7.13;;;;;;;8.75;63.48;98266.72;5037458;28;20037;-67
2021/11/08 11:45:44;;;;;;;13.68;6.88;;;;;;;8.53;64.01;98211.09;5033849;28;20080;-66
2021/11/08 11:48:09;;;;;;;11.82;6.70;;;;;;;8.65;63.34;98249.91;5048924;28;20496;-65
2021/11/08 11:50:36;;;;;;;12.07;6.78;;;;;;;8.74;63.91;98265.03;5032869;28;20044;-65
2021/11/08 11:53:04;;;;;;;10.43;6.90;;;;;;;8.70;64.02;98253.00;5035379;28;20037;-66
2021/11/08 11:55:31;;;;;;;10.48;6.95;;;;;;;8.72;63.78;98259.00;5029942;28;20064;-65
2021/11/08 11:58:00;;;;;;;12.10;7.18;;;;;;;8.73;63.46;98270.50;5048082;28;20028;-64
2021/11/08 12:00:28;;;;;;;8.20;5.75;;;;;;;8.69;63.58;98264.66;5045358;28;20861;-66
2021/11/08 12:02:55;;;;;;;10.15;6.13;;;;;;;8.69;62.95;98269.13;5012238;28;20041;-68
2021/11/08 12:05:22;;;;;;;11.80;6.20;;;;;;;8.42;63.28;98228.13;5029864;28;20408;-65
2021/11/08 12:07:53;;;;;;;10.73;6.07;;;;;;;8.45;63.70;98239.34;5028829;28;20037;-68
2021/11/08 12:10:19;;;;;;;9.50;6.32;;;;;;;8.57;63.40;98268.50;5046513;28;20076;-65
2021/11/08 12:12:45;;;;;;;11.05;6.13;;;;;;;8.55;63.17;98259.81;5053920;28;20166;-65
2021/11/08 12:15:12;;;;;;;13.77;6.32;;;;;;;8.51;63.13;98250.44;5048241;28;20112;-68
2021/11/08 12:17:46;;;;;;;10.93;6.70;;;;;;;8.58;63.64;98263.03;5034291;28;20056;-66
2021/11/08 12:20:24;;;;;;;10.27;6.65;;;;;;;8.61;63.55;98259.19;5034264;28;20053;-67
2021/11/08 12:22:51;;;;;;;8.93;6.07;;;;;;;8.44;63.30;98235.00;5051290;28;20142;-66
2021/11/08 12:25:20;;;;;;;11.00;6.68;;;;;;;8.60;62.97;98254.84;5052105;28;20087;-64
2021/11/08 12:28:08;;;;;;;9.50;6.82;;;;;;;8.76;63.30;98259.53;5050765;28;20079;-65
2021/11/08 12:30:37;;;;;;;8.65;5.80;;;;;;;8.73;62.92;98250.00;5044577;28;20034;-67
2021/11/08 12:33:20;;;;;;;11.75;5.78;;;;;;;8.54;63.25;98218.13;5053750;28;20119;-66
2021/11/08 12:35:46;;;;;;;9.98;6.10;;;;;;;8.75;62.90;98263.19;5048472;28;20036;-64
2021/11/08 12:38:27;;;;;;;10.07;5.82;;;;;;;8.79;62.76;98256.56;5039629;28;20025;-65
2021/11/08 12:41:25;;;;;;;9.10;5.72;;;;;;;8.78;62.70;98254.06;5034215;28;20073;-68
2021/11/08 12:44:01;;;;;;;8.52;5.47;;;;;;;8.70;62.82;98253.00;5042946;28;20112;-64
2021/11/08 12:46:32;;;;;;;;;;;;;;;8.89;62.44;98259.16;5026353;28;20060;-65
2021/11/08 12:49:12;;;;;;;13.90;5.80;;;;;;;8.76;62.76;98257.72;5049085;28;19912;-63
2021/11/08 12:51:38;;;;;;;8.52;5.93;;;;;;;8.65;62.67;98265.91;5036278;28;20028;-66
2021/11/08 12:54:10;;;;;;;9.43;4.88;;;;;;;8.63;63.08;98264.41;5051775;28;20029;-66
2021/11/08 12:56:45;;;;;;;12.60;6.25;;;;;;;8.57;63.35;98271.16;5053199;28;20032;-66
2021/11/08 12:59:24;;;;;;;10.35;5.60;;;;;;;8.60;63.08;98252.19;5033133;28;20115;-67
2021/11/08 13:02:09;;;;;;;9.25;5.63;;;;;;;8.65;63.18;98257.91;5045381;28;20045;-67
2021/11/08 13:04:57;;;;;;;8.63;5.18;;;;;;;8.56;63.10;98245.47;5047427;28;20071;-66
2021/11/08 13:07:27;;;;;;;11.07;5.60;;;;;;;8.50;63.13;98260.25;5032960;28;20036;-64
2021/11/08 13:09:55;;;;;;;9.48;6.18;;;;;;;8.46;63.46;98259.69;5032503;28;20088;-63
2021/11/08 13:12:33;;;;;;;13.50;6.30;;;;;;;8.41;63.74;98255.78;5046439;28;20112;-65
2021/11/08 13:15:06;;;;;;;13.13;6.40;;;;;;;8.40;64.45;98262.94;5040052;28;20071;-67
2021/11/08 13:17:31;;;;;;;10.75;6.20;;;;;;;8.35;64.75;98261.72;5034847;28;20068;-68
2021/11/08 13:20:05;;;;;;;15.07;6.18;;;;;;;8.40;64.86;98268.28;5039063;28;20068;-64
2021/11/08 13:22:41;;;;;;;7.80;5.30;;;;;;;8.14;65.05;98228.97;5052984;28;20076;-64
2021/11/08 13:25:35;;;;;;;8.45;5.32;;;;;;;8.36;65.15;98269.56;5052264;28;20477;-69
2021/11/08 13:28:05;;;;;;;11.07;5.75;;;;;;;8.31;65.12;98274.50;5052893;28;20116;-66
2021/11/08 13:30:54;;;;;;;12.38;5.50;;;;;;;8.21;65.26;98242.56;5052146;28;20027;-67
2021/11/08 13:33:22;;;;;;;10.15;6.40;;;;;;;8.35;65.26;98273.22;5046514;28;20040;-67
2021/11/08 13:35:48;;;;;;;8.43;5.20;;;;;;;8.11;64.99;98237.25;5032667;28;20029;-63